createdAt,value
2023-03-30T00:02:08.582Z,13.00
2023-03-30T00:04:35.472Z,14.60
2023-03-30T00:07:02.541Z,12.93
2023-03-30T00:09:28.920Z,11.30
2023-03-30T00:11:55.469Z,12.68
2023-03-30T00:14:22.043Z,12.75
2023-03-30T00:16:48.753Z,13.25
2023-03-30T00:19:15.570Z,11.88
2023-03-30T00:21:41.869Z,12.35
2023-03-30T00:24:08.807Z,12.68
2023-03-30T00:26:35.222Z,12.73
2023-03-30T00:29:02.176Z,13.27
2023-03-30T00:31:29.175Z,13.07
2023-03-30T00:33:55.658Z,12.48
2023-03-30T00:36:22.921Z,12.80
2023-03-30T00:38:49.760Z,12.20
2023-03-30T00:41:16.123Z,11.85
2023-03-30T00:43:42.454Z,12.35
2023-03-30T00:46:09.115Z,13.68
2023-03-30T00:48:36.025Z,12.45
2023-03-30T00:51:02.804Z,11.48
2023-03-30T00:53:30.324Z,12.05
2023-03-30T00:55:57.159Z,12.98
2023-03-30T00:58:23.569Z,10.88
2023-03-30T01:00:49.957Z,11.73
2023-03-30T01:03:17.165Z,11.98
2023-03-30T01:05:43.919Z,13.00
2023-03-30T01:10:41.730Z,12.52
2023-03-30T01:13:08.227Z,12.35
2023-03-30T01:15:34.604Z,12.95
2023-03-30T01:18:01.143Z,12.13
2023-03-30T01:20:27.741Z,12.45
2023-03-30T01:22:54.117Z,12.80
2023-03-30T01:25:20.511Z,13.95
2023-03-30T01:27:46.886Z,12.70
2023-03-30T01:30:13.194Z,11.75
2023-03-30T01:32:39.562Z,12.45
2023-03-30T01:35:06.039Z,11.35
2023-03-30T01:37:32.971Z,11.75
2023-03-30T01:39:59.594Z,11.73
2023-03-30T01:42:28.778Z,11.45
2023-03-30T01:44:55.189Z,11.23
2023-03-30T01:47:21.538Z,11.32
2023-03-30T01:49:47.898Z,11.38
2023-03-30T01:52:14.272Z,10.85
2023-03-30T01:54:40.726Z,13.88
2023-03-30T01:57:07.146Z,11.40
2023-03-30T01:59:33.515Z,11.82
2023-03-30T02:02:00.023Z,10.60
2023-03-30T02:04:26.425Z,10.90
2023-03-30T02:06:52.777Z,11.43
2023-03-30T02:09:19.188Z,10.35
2023-03-30T02:11:45.644Z,12.10
2023-03-30T02:14:11.950Z,10.60
2023-03-30T02:16:38.994Z,12.02
2023-03-30T02:19:05.436Z,10.90
2023-03-30T02:21:32.353Z,9.65
2023-03-30T02:23:58.660Z,10.52
2023-03-30T02:26:25.068Z,10.65
2023-03-30T02:28:51.429Z,10.70
2023-03-30T02:31:17.989Z,11.32
2023-03-30T02:33:44.655Z,10.07
2023-03-30T02:36:11.361Z,11.23
2023-03-30T02:38:37.770Z,10.45
2023-03-30T02:41:04.325Z,9.63
2023-03-30T02:43:30.862Z,12.82
2023-03-30T02:45:57.782Z,10.82
2023-03-30T02:48:24.143Z,10.73
2023-03-30T02:50:51.302Z,10.63
2023-03-30T02:53:17.664Z,9.65
2023-03-30T02:55:44.049Z,11.35
2023-03-30T02:58:10.943Z,9.60
2023-03-30T03:00:37.378Z,10.68
2023-03-30T03:03:03.834Z,9.35
2023-03-30T03:05:30.223Z,9.80
2023-03-30T03:07:57.458Z,9.82
2023-03-30T03:10:24.064Z,8.95
2023-03-30T03:12:50.397Z,9.75
2023-03-30T03:15:16.703Z,9.38
2023-03-30T03:17:43.538Z,10.82
2023-03-30T03:20:10.432Z,9.55
2023-03-30T03:22:36.805Z,10.25
2023-03-30T03:25:03.183Z,9.68
2023-03-30T03:27:29.543Z,8.82
2023-03-30T03:29:56.623Z,9.88
2023-03-30T03:32:23.041Z,9.68
2023-03-30T03:34:49.379Z,9.48
2023-03-30T03:37:15.752Z,10.10
2023-03-30T03:39:42.066Z,9.63
2023-03-30T03:42:08.735Z,9.15
2023-03-30T03:44:35.317Z,10.20
2023-03-30T03:47:01.639Z,8.93
2023-03-30T03:49:28.603Z,9.80
2023-03-30T03:51:54.997Z,10.27
2023-03-30T03:54:21.415Z,9.45
2023-03-30T03:56:47.748Z,8.95
2023-03-30T03:59:14.042Z,9.77
2023-03-30T04:01:40.388Z,10.65
2023-03-30T04:04:07.157Z,9.27
2023-03-30T04:06:33.920Z,9.90
2023-03-30T04:09:00.699Z,8.55
2023-03-30T04:11:27.269Z,8.50
2023-03-30T04:13:53.626Z,11.23
2023-03-30T04:16:20.077Z,9.45
2023-03-30T04:18:46.604Z,9.70
2023-03-30T04:21:13.277Z,10.15
2023-03-30T04:23:39.798Z,9.27
2023-03-30T04:26:06.303Z,9.43
2023-03-30T04:28:32.733Z,8.00
2023-03-30T04:30:59.542Z,10.07
2023-03-30T04:33:25.890Z,8.68
2023-03-30T04:35:52.298Z,9.43
2023-03-30T04:38:18.693Z,9.10
2023-03-30T04:40:45.273Z,8.73
2023-03-30T04:43:11.769Z,9.07
2023-03-30T04:45:38.519Z,8.95
2023-03-30T04:48:05.026Z,8.68
2023-03-30T04:50:31.994Z,9.32
2023-03-30T04:52:58.413Z,8.63
2023-03-30T04:55:24.996Z,9.50
2023-03-30T04:57:51.314Z,8.95
2023-03-30T05:00:18.479Z,8.68
2023-03-30T05:02:45.513Z,10.43
2023-03-30T05:05:11.929Z,8.77
2023-03-30T05:07:38.247Z,7.55
2023-03-30T05:10:05.022Z,7.97
2023-03-30T05:12:31.645Z,7.75
2023-03-30T05:14:58.125Z,9.02
2023-03-30T05:17:24.495Z,10.02
2023-03-30T05:19:51.163Z,8.23
2023-03-30T05:22:17.829Z,9.73
2023-03-30T05:24:44.423Z,9.93
2023-03-30T05:27:10.745Z,8.75
2023-03-30T05:29:37.205Z,8.52
2023-03-30T05:32:04.435Z,8.82
2023-03-30T05:34:30.841Z,8.13
2023-03-30T05:36:57.427Z,8.13
2023-03-30T05:39:23.776Z,7.93
2023-03-30T05:41:50.233Z,7.70
2023-03-30T05:44:16.734Z,8.23
2023-03-30T05:46:43.494Z,9.63
2023-03-30T05:49:10.244Z,8.40
2023-03-30T05:51:37.526Z,9.80
2023-03-30T05:54:04.127Z,8.32
2023-03-30T05:56:30.449Z,8.95
2023-03-30T05:58:56.848Z,9.85
2023-03-30T06:01:23.594Z,9.07
2023-03-30T06:03:50.250Z,9.02
2023-03-30T06:06:16.791Z,8.20
2023-03-30T06:08:43.763Z,7.43
2023-03-30T06:11:10.453Z,7.90
2023-03-30T06:13:37.038Z,9.05
2023-03-30T06:16:03.898Z,9.18
2023-03-30T06:18:30.450Z,9.30
2023-03-30T06:20:56.796Z,10.93
2023-03-30T06:23:23.209Z,9.18
2023-03-30T06:25:49.807Z,9.70
2023-03-30T06:28:16.398Z,10.05
2023-03-30T06:30:42.753Z,10.27
2023-03-30T06:33:09.274Z,10.60
2023-03-30T06:35:35.704Z,10.75
2023-03-30T06:38:02.099Z,10.02
2023-03-30T06:40:28.498Z,13.30
2023-03-30T06:42:55.428Z,9.40
2023-03-30T06:45:21.847Z,12.43
2023-03-30T06:47:48.366Z,11.95
2023-03-30T06:50:15.126Z,10.00
2023-03-30T06:52:41.575Z,12.55
2023-03-30T06:55:07.926Z,12.93
2023-03-30T06:57:34.789Z,13.20
2023-03-30T07:00:01.615Z,11.70
2023-03-30T07:02:27.969Z,12.60
2023-03-30T07:04:54.554Z,12.65
2023-03-30T07:07:21.040Z,14.63
2023-03-30T07:09:47.578Z,17.75
2023-03-30T07:12:14.468Z,18.60
2023-03-30T07:14:41.040Z,20.27
2023-03-30T07:17:07.379Z,18.65
2023-03-30T07:19:34.436Z,19.88
2023-03-30T07:22:00.889Z,24.35
2023-03-30T07:24:27.309Z,82.40
2023-03-30T07:26:53.675Z,107.63
2023-03-30T07:29:20.403Z,84.18
2023-03-30T07:31:47.453Z,51.83
2023-03-30T07:34:13.817Z,48.67
2023-03-30T07:36:40.895Z,48.67
2023-03-30T07:39:07.735Z,51.92
2023-03-30T07:41:34.250Z,44.30
2023-03-30T07:44:00.870Z,45.47
2023-03-30T07:46:27.783Z,52.03
2023-03-30T07:48:54.395Z,45.85
2023-03-30T07:51:20.886Z,49.15
2023-03-30T07:53:47.504Z,48.92
2023-03-30T07:56:14.009Z,54.33
2023-03-30T07:58:40.392Z,46.63
2023-03-30T08:01:07.343Z,49.17
2023-03-30T08:03:33.849Z,54.00
2023-03-30T08:06:00.305Z,46.03
2023-03-30T08:08:26.991Z,48.47
2023-03-30T08:10:53.957Z,48.03
2023-03-30T08:13:22.004Z,54.95
2023-03-30T08:15:48.559Z,51.15
2023-03-30T08:18:15.629Z,47.95
2023-03-30T08:20:41.988Z,47.35
2023-03-30T08:23:08.455Z,43.78
2023-03-30T08:25:34.742Z,51.28
2023-03-30T08:28:01.097Z,54.90
2023-03-30T08:30:27.556Z,49.33
2023-03-30T08:32:53.955Z,52.72
2023-03-30T08:35:20.526Z,48.45
2023-03-30T08:37:47.239Z,51.38
2023-03-30T08:40:13.607Z,53.35
2023-03-30T08:42:40.036Z,50.55
2023-03-30T08:45:06.564Z,43.97
2023-03-30T08:47:33.004Z,45.97
2023-03-30T08:49:59.418Z,49.90
2023-03-30T08:52:26.404Z,49.20
2023-03-30T08:54:52.820Z,47.72
2023-03-30T08:57:21.047Z,48.10
2023-03-30T08:59:47.588Z,45.70
2023-03-30T09:02:13.923Z,43.30
2023-03-30T09:04:40.307Z,44.47
2023-03-30T09:07:06.737Z,45.25
2023-03-30T09:09:33.069Z,49.72
2023-03-30T09:11:59.640Z,50.17
2023-03-30T09:14:25.996Z,45.35
2023-03-30T09:16:52.861Z,44.78
2023-03-30T09:19:19.672Z,44.72
2023-03-30T09:21:46.051Z,47.47
2023-03-30T09:24:12.614Z,47.08
2023-03-30T09:26:39.315Z,47.50
2023-03-30T09:29:05.753Z,52.58
2023-03-30T09:31:32.479Z,48.40
2023-03-30T09:33:59.266Z,48.80
2023-03-30T09:36:27.739Z,41.13
2023-03-30T09:38:54.240Z,43.90
2023-03-30T09:41:20.540Z,45.05
2023-03-30T09:43:46.990Z,47.35
2023-03-30T09:46:13.364Z,46.47
2023-03-30T09:48:39.852Z,47.85
2023-03-30T09:51:06.223Z,43.17
2023-03-30T09:53:32.888Z,44.13
2023-03-30T09:55:59.429Z,50.03
2023-03-30T09:58:25.854Z,38.17
2023-03-30T10:00:52.851Z,38.53
2023-03-30T10:03:19.995Z,42.88
2023-03-30T10:05:47.103Z,38.88
2023-03-30T10:08:13.527Z,45.00
2023-03-30T10:10:39.918Z,37.75
2023-03-30T10:13:06.283Z,42.55
2023-03-30T10:15:33.348Z,39.90
2023-03-30T10:17:59.835Z,35.88
2023-03-30T10:20:26.212Z,39.40
2023-03-30T10:22:52.578Z,37.35
2023-03-30T10:25:18.959Z,37.70
2023-03-30T10:27:46.423Z,34.65
2023-03-30T10:30:13.989Z,38.25
2023-03-30T10:32:40.570Z,38.20
2023-03-30T10:35:07.317Z,40.03
2023-03-30T10:37:34.173Z,37.28
2023-03-30T10:40:00.774Z,34.65
2023-03-30T10:42:27.463Z,36.10
2023-03-30T10:44:54.045Z,35.15
2023-03-30T10:47:20.582Z,37.05
2023-03-30T10:49:47.321Z,38.80
2023-03-30T10:52:13.730Z,33.20
2023-03-30T10:54:40.130Z,35.85
2023-03-30T10:57:06.521Z,33.05
2023-03-30T10:59:33.000Z,36.17
2023-03-30T11:01:59.581Z,31.50
2023-03-30T11:04:26.272Z,31.60
2023-03-30T11:06:52.681Z,34.05
2023-03-30T11:09:19.490Z,34.60
2023-03-30T11:11:45.887Z,30.00
2023-03-30T11:14:12.249Z,34.50
2023-03-30T11:16:38.893Z,32.55
2023-03-30T11:19:05.607Z,31.23
2023-03-30T11:21:32.002Z,32.28
2023-03-30T11:23:58.744Z,35.17
2023-03-30T11:26:25.661Z,31.77
2023-03-30T11:28:52.050Z,29.75
2023-03-30T11:31:18.611Z,31.02
2023-03-30T11:33:46.788Z,29.10
2023-03-30T11:36:13.383Z,29.75
2023-03-30T11:38:39.744Z,28.63
2023-03-30T11:41:06.854Z,28.13
2023-03-30T11:43:33.681Z,28.85
2023-03-30T11:46:03.644Z,29.75
2023-03-30T11:48:30.652Z,30.10
2023-03-30T11:50:57.122Z,29.90
2023-03-30T11:53:23.397Z,27.70
2023-03-30T11:55:50.054Z,28.85
2023-03-30T11:58:16.390Z,32.85
2023-03-30T12:00:42.946Z,27.25
2023-03-30T12:03:09.972Z,28.67
2023-03-30T12:05:36.624Z,29.10
2023-03-30T12:08:03.241Z,27.60
2023-03-30T12:10:29.896Z,29.52
2023-03-30T12:12:56.644Z,27.05
2023-03-30T12:15:23.417Z,28.70
2023-03-30T12:17:50.415Z,27.35
2023-03-30T12:20:17.377Z,25.70
2023-03-30T12:22:43.704Z,28.27
2023-03-30T12:25:10.376Z,28.67
2023-03-30T12:27:36.830Z,27.52
2023-03-30T12:30:03.745Z,29.90
2023-03-30T12:32:31.012Z,24.70
2023-03-30T12:34:57.541Z,26.63
2023-03-30T12:37:23.929Z,27.25
2023-03-30T12:39:50.626Z,26.85
2023-03-30T12:42:17.000Z,26.02
2023-03-30T12:44:43.356Z,26.63
2023-03-30T12:47:11.686Z,26.13
2023-03-30T12:49:38.800Z,22.05
2023-03-30T12:52:05.242Z,24.80
2023-03-30T12:54:31.551Z,25.70
2023-03-30T12:56:58.260Z,24.30
2023-03-30T12:59:24.610Z,23.15
2023-03-30T13:01:51.409Z,26.02
2023-03-30T13:04:18.134Z,24.67
2023-03-30T13:06:45.311Z,23.45
2023-03-30T13:09:11.891Z,24.08
2023-03-30T13:11:38.223Z,24.20
2023-03-30T13:14:05.190Z,22.75
2023-03-30T13:16:31.750Z,27.25
2023-03-30T13:18:58.166Z,22.13
2023-03-30T13:21:24.605Z,22.42
2023-03-30T13:23:51.026Z,24.38
2023-03-30T13:26:28.160Z,19.90
2023-03-30T13:28:59.190Z,23.80
2023-03-30T13:31:25.631Z,25.83
2023-03-30T13:33:52.045Z,21.58
2023-03-30T13:36:18.891Z,21.42
2023-03-30T13:38:45.422Z,20.67
2023-03-30T13:41:12.232Z,19.67
2023-03-30T13:43:38.646Z,22.63
2023-03-30T13:46:16.448Z,18.50
2023-03-30T13:48:44.067Z,21.70
2023-03-30T13:51:10.443Z,19.77
2023-03-30T13:53:36.871Z,17.27
2023-03-30T13:56:04.216Z,19.27
2023-03-30T13:58:31.106Z,19.23
2023-03-30T14:00:58.066Z,22.48
2023-03-30T14:03:25.015Z,18.13
2023-03-30T14:05:51.306Z,18.42
2023-03-30T14:08:17.928Z,18.05
2023-03-30T14:10:44.317Z,16.27
2023-03-30T14:13:10.976Z,19.70
2023-03-30T14:15:37.366Z,16.52
2023-03-30T14:18:03.724Z,17.35
2023-03-30T14:20:30.322Z,20.75
2023-03-30T14:22:56.597Z,17.05
2023-03-30T14:25:23.198Z,16.63
2023-03-30T14:27:49.509Z,18.15
2023-03-30T14:30:15.837Z,16.20
2023-03-30T14:32:42.287Z,17.20
2023-03-30T14:35:08.671Z,16.58
2023-03-30T14:37:34.995Z,15.65
2023-03-30T14:40:01.261Z,17.42
2023-03-30T14:42:27.586Z,17.27
2023-03-30T14:44:54.140Z,16.40
2023-03-30T14:47:20.567Z,14.48
2023-03-30T14:49:46.882Z,14.77
2023-03-30T14:52:13.453Z,14.05
2023-03-30T14:54:39.893Z,14.95
2023-03-30T14:57:06.289Z,14.65
2023-03-30T14:59:32.814Z,15.63
2023-03-30T15:01:59.312Z,14.68
2023-03-30T15:04:25.787Z,14.35
2023-03-30T15:06:52.226Z,13.60
2023-03-30T15:09:18.580Z,14.77
2023-03-30T15:11:45.009Z,13.07
2023-03-30T15:14:11.374Z,16.05
2023-03-30T15:16:38.083Z,16.17
2023-03-30T15:19:04.522Z,14.88
2023-03-30T15:21:30.873Z,11.27
2023-03-30T15:23:57.519Z,14.13
2023-03-30T15:26:23.841Z,12.93
2023-03-30T15:28:50.336Z,14.57
2023-03-30T15:31:16.787Z,12.48
2023-03-30T15:33:43.256Z,14.75
2023-03-30T15:36:09.698Z,11.45
2023-03-30T15:38:36.221Z,12.57
2023-03-30T15:41:02.895Z,13.02
2023-03-30T15:43:29.293Z,15.95
2023-03-30T15:45:55.896Z,13.07
2023-03-30T15:48:22.281Z,12.40
2023-03-30T15:50:48.601Z,12.48
2023-03-30T15:53:14.881Z,11.52
2023-03-30T15:55:41.192Z,11.27
2023-03-30T15:58:07.586Z,11.05
2023-03-30T16:00:34.002Z,11.52
2023-03-30T16:03:00.494Z,12.63
2023-03-30T16:05:27.480Z,12.43
2023-03-30T16:07:53.918Z,10.85
2023-03-30T16:10:20.286Z,13.18
2023-03-30T16:12:46.786Z,11.95
2023-03-30T16:15:13.141Z,11.45
2023-03-30T16:17:39.732Z,11.68
2023-03-30T16:20:06.213Z,10.77
2023-03-30T16:22:32.631Z,12.55
2023-03-30T16:24:58.985Z,11.63
2023-03-30T16:27:25.493Z,10.00
2023-03-30T16:29:51.961Z,11.65
2023-03-30T16:32:18.272Z,12.23
2023-03-30T16:34:44.809Z,12.18
2023-03-30T16:37:11.380Z,11.43
2023-03-30T16:39:37.879Z,10.23
2023-03-30T16:42:04.243Z,10.25
2023-03-30T16:44:30.733Z,11.00
2023-03-30T16:46:57.051Z,11.15
2023-03-30T16:49:23.329Z,10.30
2023-03-30T16:51:49.735Z,10.35
2023-03-30T16:54:27.739Z,12.10
2023-03-30T16:56:57.184Z,10.90
2023-03-30T16:59:23.559Z,10.80
2023-03-30T17:01:50.140Z,9.45
2023-03-30T17:04:17.000Z,11.48
2023-03-30T17:06:43.338Z,8.20
2023-03-30T17:09:09.680Z,12.23
2023-03-30T17:11:36.029Z,36.83
2023-03-30T17:14:02.772Z,123.80
2023-03-30T17:16:29.521Z,89.72
2023-03-30T17:18:56.306Z,84.18
2023-03-30T17:21:22.760Z,79.68
2023-03-30T17:23:49.154Z,71.35
2023-03-30T17:26:15.644Z,224.65
2023-03-30T17:28:42.378Z,214.20
2023-03-30T17:31:11.044Z,187.95
2023-03-30T17:33:37.818Z,165.90
2023-03-30T17:36:04.371Z,154.45
2023-03-30T17:38:30.749Z,148.32
2023-03-30T17:40:57.120Z,132.55
2023-03-30T17:43:23.489Z,132.43
2023-03-30T17:45:49.900Z,108.18
2023-03-30T17:48:16.718Z,104.75
2023-03-30T17:50:43.050Z,97.13
2023-03-30T17:53:09.801Z,88.10
2023-03-30T17:55:36.690Z,150.95
2023-03-30T17:58:02.980Z,156.73
2023-03-30T18:00:29.644Z,145.23
2023-03-30T18:02:56.007Z,131.68
2023-03-30T18:05:22.827Z,124.03
2023-03-30T18:07:49.165Z,118.57
2023-03-30T18:10:15.687Z,112.05
2023-03-30T18:12:42.105Z,108.10
2023-03-30T18:15:08.426Z,99.85
2023-03-30T18:17:34.763Z,98.72
2023-03-30T18:20:01.255Z,89.07
2023-03-30T18:22:27.914Z,87.88
2023-03-30T18:24:54.321Z,81.47
2023-03-30T18:27:20.786Z,77.32
2023-03-30T18:29:47.417Z,73.28
2023-03-30T18:32:13.942Z,69.78
2023-03-30T18:34:40.321Z,66.63
2023-03-30T18:37:06.782Z,65.07
2023-03-30T18:39:33.122Z,59.70
2023-03-30T18:41:59.766Z,182.73
2023-03-30T18:44:26.317Z,242.30
2023-03-30T18:46:52.680Z,203.55
2023-03-30T18:49:19.029Z,191.18
2023-03-30T18:51:45.463Z,167.45
2023-03-30T18:54:11.813Z,155.00
2023-03-30T18:56:38.166Z,144.80
2023-03-30T18:59:04.540Z,137.93
2023-03-30T19:01:31.447Z,131.07
2023-03-30T19:03:57.750Z,124.75
2023-03-30T19:06:24.090Z,119.63
2023-03-30T19:08:50.482Z,114.22
2023-03-30T19:11:17.059Z,108.35
2023-03-30T19:13:43.359Z,246.55
2023-03-30T19:16:09.746Z,266.98
2023-03-30T19:18:36.159Z,241.32
2023-03-30T19:21:03.113Z,226.68
2023-03-30T19:23:29.790Z,205.95
2023-03-30T19:25:56.243Z,192.80
2023-03-30T19:28:22.576Z,185.35
2023-03-30T19:30:49.494Z,170.05
2023-03-30T19:33:15.930Z,161.43
2023-03-30T19:35:42.327Z,158.07
2023-03-30T19:38:09.244Z,150.55
2023-03-30T19:40:35.807Z,140.25
2023-03-30T19:43:02.614Z,133.73
2023-03-30T19:45:29.081Z,155.02
2023-03-30T19:47:55.452Z,352.13
2023-03-30T19:50:21.907Z,292.33
2023-03-30T19:52:48.905Z,266.70
2023-03-30T19:55:15.350Z,257.17
2023-03-30T19:57:41.801Z,239.07
2023-03-30T20:00:08.162Z,224.52
2023-03-30T20:02:34.559Z,178.70
2023-03-30T20:05:00.886Z,142.73
2023-03-30T20:07:27.434Z,140.70
2023-03-30T20:09:53.856Z,135.52
2023-03-30T20:12:20.725Z,134.93
2023-03-30T20:14:47.100Z,121.80
2023-03-30T20:17:13.403Z,120.95
2023-03-30T20:19:39.781Z,106.60
2023-03-30T20:22:06.329Z,101.30
2023-03-30T20:24:32.592Z,100.25
2023-03-30T20:26:59.390Z,96.55
2023-03-30T20:29:25.736Z,86.80
2023-03-30T20:31:52.309Z,90.75
2023-03-30T20:34:18.798Z,110.80
2023-03-30T20:36:45.547Z,357.10
2023-03-30T20:39:11.874Z,318.45
2023-03-30T20:41:38.277Z,293.63
2023-03-30T20:44:04.701Z,273.58
2023-03-30T20:46:31.100Z,258.65
2023-03-30T20:48:57.386Z,244.93
2023-03-30T20:51:23.834Z,232.82
2023-03-30T20:53:50.298Z,222.70
2023-03-30T20:56:17.196Z,212.60
2023-03-30T20:58:43.682Z,201.23
2023-03-30T21:01:10.499Z,193.55
2023-03-30T21:03:36.971Z,343.88
2023-03-30T21:06:03.710Z,411.95
2023-03-30T21:08:30.745Z,361.90
2023-03-30T21:10:57.483Z,342.35
2023-03-30T21:13:23.826Z,326.10
2023-03-30T21:15:50.201Z,305.95
2023-03-30T21:18:16.485Z,288.95
2023-03-30T21:20:42.780Z,281.80
2023-03-30T21:23:09.651Z,270.20
2023-03-30T21:25:36.306Z,256.90
2023-03-30T21:28:02.961Z,391.08
2023-03-30T21:30:29.754Z,456.23
2023-03-30T21:32:56.192Z,408.77
2023-03-30T21:35:22.537Z,396.33
2023-03-30T21:37:48.923Z,374.92
2023-03-30T21:40:15.530Z,365.10
2023-03-30T21:42:42.270Z,503.65
2023-03-30T21:45:08.984Z,481.45
2023-03-30T21:47:35.481Z,453.00
2023-03-30T21:50:02.037Z,440.10
2023-03-30T21:52:28.410Z,439.73
2023-03-30T21:54:54.858Z,513.97
2023-03-30T21:57:21.248Z,529.15
2023-03-30T21:59:48.107Z,512.30
2023-03-30T22:02:14.672Z,496.23
2023-03-30T22:04:41.386Z,492.70
2023-03-30T22:07:08.247Z,487.10
2023-03-30T22:09:34.650Z,488.52
2023-03-30T22:12:00.912Z,480.95
2023-03-30T22:14:28.200Z,468.92
2023-03-30T22:16:54.571Z,468.92
2023-03-30T22:19:21.551Z,464.08
2023-03-30T22:21:48.333Z,456.80
2023-03-30T22:24:14.662Z,448.17
2023-03-30T22:26:40.963Z,446.23
2023-03-30T22:29:07.275Z,442.42
2023-03-30T22:31:33.770Z,437.20
2023-03-30T22:34:00.218Z,434.17
2023-03-30T22:36:26.643Z,429.02
2023-03-30T22:38:53.038Z,422.52
2023-03-30T22:41:19.409Z,420.52
2023-03-30T22:43:45.768Z,416.75
2023-03-30T22:46:12.433Z,406.95
2023-03-30T22:48:39.575Z,406.77
2023-03-30T22:51:06.186Z,405.10
2023-03-30T22:53:33.075Z,395.55
2023-03-30T22:55:59.415Z,390.58
2023-03-30T22:58:25.979Z,390.60
2023-03-30T23:00:52.375Z,387.38
2023-03-30T23:03:18.900Z,374.13
2023-03-30T23:05:45.465Z,373.27
2023-03-30T23:08:11.898Z,370.80
2023-03-30T23:10:38.222Z,363.45
2023-03-30T23:13:05.135Z,358.30
2023-03-30T23:15:31.521Z,360.65
2023-03-30T23:17:58.309Z,355.70
2023-03-30T23:20:24.605Z,347.20
2023-03-30T23:22:50.967Z,344.40
2023-03-30T23:25:17.879Z,341.00
2023-03-30T23:27:44.367Z,335.52
2023-03-30T23:30:10.734Z,333.17
2023-03-30T23:32:37.465Z,331.27
2023-03-30T23:35:03.853Z,329.10
2023-03-30T23:37:30.272Z,318.75
2023-03-30T23:39:56.602Z,315.00
2023-03-30T23:42:23.396Z,308.05
2023-03-30T23:44:50.083Z,309.20
2023-03-30T23:47:16.491Z,312.98
2023-03-30T23:49:43.393Z,300.65
2023-03-30T23:52:09.842Z,296.10
2023-03-30T23:54:36.201Z,299.42
2023-03-30T23:57:02.677Z,291.88
2023-03-30T23:59:29.066Z,292.13
